Bookmark and Share
Track history (hours):
 

MV Moseldijk

Last reported at 2014-Apr-14 23:33 UTC. Time now 2014-Apr-19 09:31 UTC.
Position N 50°19' W 001°14'.

Length 90 m; draft 6.4 m.

Type: Cargo ship. MMSI: 246644000.

NotesDate/timePositionNaut miles runAvg speedWind from/ knotsBaromVisibWave heightAir tempDewpointWater temp
2014-Apr-14 23:33N 50°19' W 001°14'1212.0
2014-Apr-14 22:34N 50°22' W 000°56'50 8.3
2014-Apr-14 16:33N 50°36' E 000°20'1111.2
2014-Apr-14 15:34N 50°40' E 000°36'1111.4
2014-Apr-14 14:34N 50°46' E 000°51'38 9.4
2014-Apr-14 10:32N 51°10' E 001°38'8 8.4
2014-Apr-14 09:33N 51°16' E 001°47'1010.2
2014-Apr-14 08:34N 51°25' E 001°54'161 9.9
2014-Apr-13 16:23N 53°29' E 004°40'6 7.2
2014-Apr-13 15:29N 53°32' E 004°50'7 7.5
2014-Apr-13 14:31N 53°34' E 005°02'8 8.6
2014-Apr-13 13:33N 53°37' E 005°15'9 9.1
2014-Apr-13 12:33N 53°40' E 005°30'9 9.2
2014-Apr-13 11:33N 53°43' E 005°44'44 8.3
2014-Apr-13 06:14N 53°55' E 006°56'5 7.8
2014-Apr-13 05:33N 53°56' E 007°05'8 8.5
2014-Apr-13 04:33N 53°58' E 007°19'10 9.4
2014-Apr-13 03:32N 54°00' E 007°35'10 9.8
2014-Apr-13 02:33N 54°01' E 007°51'1010.2
2014-Apr-13 01:33N 54°00' E 008°09'10 9.6
2014-Apr-13 00:34N 53°59' E 008°25'1110.5
2014-Apr-12 23:33N 53°55' E 008°41'8 8.2
2014-Apr-12 22:34N 53°51' E 008°53'8 8.3
2014-Apr-12 21:34N 53°53' E 009°06'2 2.1
2014-Apr-12 20:33N 53°54' E 009°09'9 8.7
2014-Apr-12 19:33N 54°01' E 009°18'9 8.4
2014-Apr-12 18:29N 54°10' E 009°24'64 5.1
2014-Apr-12 06:05N 54°36' E 011°03'5 9.6
2014-Apr-12 05:33N 54°36' E 011°12'1010.1
2014-Apr-12 04:33N 54°31' E 011°27'1110.9
2014-Apr-12 03:33N 54°27' E 011°44'10 9.6
2014-Apr-12 02:33N 54°20' E 011°55'1010.0
2014-Apr-12 01:32N 54°11' E 012°05'2 2.4
2014-Apr-12 00:29N 54°09' E 012°07'0 0.0
2014-Apr-11 23:29N 54°09' E 012°07'0 0.0
2014-Apr-11 22:23N 54°09' E 012°07'0 0.0
2014-Apr-11 21:32N 54°09' E 012°07'0 0.0
2014-Apr-11 19:29N 54°09' E 012°07'0 0.0
2014-Apr-11 18:11N 54°09' E 012°07'0 0.0
2014-Apr-11 17:29N 54°09' E 012°07'0 0.0
2014-Apr-11 16:08N 54°09' E 012°07'0 0.0
2014-Apr-11 15:29N 54°09' E 012°07'0 0.0
2014-Apr-11 14:23N 54°09' E 012°07'0 0.0
2014-Apr-11 13:29N 54°09' E 012°07'0 0.0
2014-Apr-11 12:29N 54°09' E 012°07'0 0.0
2014-Apr-11 11:23N 54°09' E 012°07'0 0.0
2014-Apr-11 09:29N 54°09' E 012°07'5 5.5
2014-Apr-11 08:33N 54°14' E 012°03'1111.1
2014-Apr-11 07:33N 54°22' E 011°50'1110.6
2014-Apr-11 06:33N 54°28' E 011°35'1010.1
2014-Apr-11 05:34N 54°32' E 011°20'58 7.2
2014-Apr-10 21:30N 54°18' E 009°43'5 5.2
2014-Apr-10 20:33N 54°15' E 009°37'6 5.9
2014-Apr-10 19:33N 54°11' E 009°29'7 6.8
2014-Apr-10 18:33N 54°07' E 009°20'9 8.6
2014-Apr-10 17:34N 53°59' E 009°16'6 6.4
2014-Apr-10 16:33N 53°54' E 009°09'4 4.2
2014-Apr-10 15:33N 53°52' E 009°03'9 9.3
2014-Apr-10 14:33N 53°50' E 008°47'9 8.5
2014-Apr-10 13:34N 53°57' E 008°38'1010.1
2014-Apr-10 12:33N 53°59' E 008°21'1311.2
2014-Apr-10 11:24N 53°58' E 007°59'3211.3
2014-Apr-10 08:33N 53°51' E 007°06'2612.0
2014-Apr-10 06:23N 53°44' E 006°23'1012.6
2014-Apr-10 05:33N 53°41' E 006°06'1312.6
2014-Apr-10 04:30N 53°37' E 005°45'1312.9
2014-Apr-10 03:32N 53°33' E 005°25'1313.0
2014-Apr-10 02:33N 53°29' E 005°05'1712.7
2014-Apr-10 01:13N 53°20' E 004°41'2313.4
2014-Apr-09 23:32N 53°00' E 004°22'1312.9
2014-Apr-09 22:33N 52°49' E 004°14'1312.6
2014-Apr-09 21:33N 52°39' E 004°02'1211.8
2014-Apr-09 20:32N 52°28' E 003°54'1211.5
2014-Apr-09 19:31N 52°16' E 003°52'1111.4
2014-Apr-09 18:33N 52°05' E 003°54'1311.0
2014-Apr-09 17:25N 51°57' E 004°10'911.0
2014-Apr-09 16:33N 51°54' E 004°25'2 2.2
2014-Apr-09 15:33N 51°54' E 004°28'0 0.0
2014-Apr-09 14:33N 51°54' E 004°28'0 0.0
2014-Apr-09 13:27N 51°54' E 004°28'0 0.0
2014-Apr-09 12:15N 51°54' E 004°28'0 0.0
2014-Apr-09 10:12N 51°54' E 004°28'0 0.0
2014-Apr-09 04:24N 51°54' E 004°28'0 0.0
2014-Apr-09 02:21N 51°54' E 004°28'2 2.5
2014-Apr-09 01:33N 51°54' E 004°25'2 0.4
2014-Apr-08 20:23N 51°54' E 004°21'0 0.0
2014-Apr-08 19:26N 51°54' E 004°21'0 0.0
2014-Apr-08 18:17N 51°54' E 004°21'0 0.0
2014-Apr-08 17:23N 51°54' E 004°21'0 0.0
2014-Apr-08 13:05N 51°54' E 004°21'1 1.7
2014-Apr-08 12:32N 51°54' E 004°20'10 9.7
2014-Apr-08 11:33N 51°59' E 004°07'12 9.8
2014-Apr-08 10:18N 52°01' E 003°48'9710.0
2014-Apr-08 00:33N 53°07' E 001°50'1211.5
2014-Apr-07 23:33N 53°12' E 001°32'4411.0
2014-Apr-07 19:33N 53°29' E 000°25'2110.4
2014-Apr-07 17:33N 53°37' W 000°07'2 2.4
2014-Apr-07 16:29N 53°38' W 000°12'0 0.0
2014-Apr-07 15:26N 53°38' W 000°12'0 0.0
2014-Apr-07 14:26N 53°38' W 000°12'0 0.0
2014-Apr-07 13:26N 53°38' W 000°12'0 0.0
2014-Apr-07 12:32N 53°38' W 000°12'0 0.0
2014-Apr-07 11:20N 53°38' W 000°12'0 0.0
2014-Apr-07 10:32N 53°38' W 000°12'0 0.0
2014-Apr-07 09:32N 53°38' W 000°12'0 0.0
2014-Apr-07 08:32N 53°38' W 000°12'0 0.0
2014-Apr-07 07:20N 53°38' W 000°12'0 0.0
2014-Apr-07 06:20N 53°38' W 000°12'0 0.0
2014-Apr-07 05:33N 53°38' W 000°12'0 0.0
2014-Apr-07 04:26N 53°38' W 000°12'0 0.0
2014-Apr-07 03:23N 53°38' W 000°12'0 0.0
2014-Apr-07 02:26N 53°38' W 000°12'0 0.0
2014-Apr-07 01:23N 53°38' W 000°12'0 0.0
2014-Apr-07 00:26N 53°38' W 000°12'0 0.0
2014-Apr-06 23:11N 53°38' W 000°12'0 0.0
2014-Apr-06 22:26N 53°38' W 000°12'0 0.0
2014-Apr-06 21:29N 53°38' W 000°12'0 0.0
2014-Apr-06 20:32N 53°38' W 000°12'0 0.0
2014-Apr-06 19:32N 53°38' W 000°12'0 0.0
2014-Apr-06 18:32N 53°38' W 000°12'0 0.0
2014-Apr-06 17:32N 53°38' W 000°12'0 0.0
2014-Apr-06 16:32N 53°38' W 000°12'0 0.0
2014-Apr-06 15:29N 53°38' W 000°12'0 0.0
2014-Apr-06 14:32N 53°38' W 000°12'0 0.0
2014-Apr-06 13:32N 53°38' W 000°12'0 0.0
2014-Apr-06 12:26N 53°38' W 000°12'0 0.0
2014-Apr-06 11:32N 53°38' W 000°12'0 0.0
2014-Apr-06 10:26N 53°38' W 000°12'0 0.0
2014-Apr-06 09:20N 53°38' W 000°12'0 0.0
2014-Apr-06 08:26N 53°38' W 000°12'0 0.0
2014-Apr-06 07:26N 53°38' W 000°12'0 0.0
2014-Apr-06 06:29N 53°38' W 000°12'0 0.0
2014-Apr-06 05:17N 53°38' W 000°12'0 0.0
2014-Apr-06 04:29N 53°38' W 000°12'0 0.0
2014-Apr-06 03:29N 53°38' W 000°12'0 0.0
2014-Apr-06 02:32N 53°38' W 000°12'0 0.0
2014-Apr-06 01:32N 53°38' W 000°12'0 0.0
2014-Apr-06 00:32N 53°38' W 000°12'0 0.0
2014-Apr-05 23:20N 53°38' W 000°12'0 0.0
2014-Apr-05 22:32N 53°38' W 000°12'0 0.0
2014-Apr-05 21:23N 53°38' W 000°12'0 0.0
2014-Apr-05 20:23N 53°38' W 000°12'0 0.0
2014-Apr-05 19:23N 53°38' W 000°12'0 0.0
2014-Apr-05 18:23N 53°38' W 000°12'0 0.0
2014-Apr-05 17:29N 53°38' W 000°12'0 0.0
2014-Apr-05 16:32N 53°38' W 000°12'0 0.0
2014-Apr-05 15:32N 53°38' W 000°12'0 0.0
2014-Apr-05 14:32N 53°38' W 000°12'0 0.0
2014-Apr-05 13:32N 53°38' W 000°12'0 0.0
2014-Apr-05 12:32N 53°38' W 000°12'0 0.0
2014-Apr-05 11:32N 53°38' W 000°12'0 0.0
2014-Apr-05 10:32N 53°38' W 000°12'0 0.0
2014-Apr-05 09:32N 53°38' W 000°12'0 0.0
2014-Apr-05 08:32N 53°38' W 000°12'0 0.0
2014-Apr-05 07:32N 53°38' W 000°12'0 0.0
2014-Apr-05 06:23N 53°38' W 000°12'0 0.0
2014-Apr-05 05:23N 53°38' W 000°12'0 0.0
2014-Apr-05 04:26N 53°38' W 000°12'0 0.0
2014-Apr-05 03:32N 53°38' W 000°12'0 0.0
2014-Apr-05 02:32N 53°38' W 000°12'0 0.0
2014-Apr-05 01:29N 53°38' W 000°12'0 0.0
2014-Apr-05 00:26N 53°38' W 000°12'  

Dump ship's entire track history

sailing weather and tide predictions

MV Moseldijk — PBWK — position and weather